Earlington, Pennsylvania
Current Conditions -  °F | °C
As of 11:55 PM on Wednesday 22 Oct 2014 (Local Time) from KUKT Reporting Station
Overcast Overcast  
Wind Chill: 50°   Ceiling: 2400
Heat Index: 50°   Visibility: 9mi
Dew Point: 46°   Wind: 9mph
Humidity: 87%   Direction: 350°N
Pressure: 29.82"   Gusts: 20mph
Location:  40.32°N, 75.37°W
Report Text: KUKT 230355Z AUTO 35008G17KT 9SM BKN024 OVC032 10/08 A2982 RMK AO1 P0001
Loading
Personal Weather Stations






























Interactive Weather Map
Tropical Storm Tracking
New forecast layout! Learn more

10-Day Weather Forecast

Advertisements
Track Severe Weather on mobile